createdAt,value
2023-01-04T00:02:04.646Z,6.00
2023-01-04T00:04:31.614Z,8.23
2023-01-04T00:06:58.367Z,5.20
2023-01-04T00:09:25.696Z,5.60
2023-01-04T00:11:53.344Z,4.77
2023-01-04T00:14:27.385Z,3.83
2023-01-04T00:16:54.540Z,5.97
2023-01-04T00:19:24.095Z,4.07
2023-01-04T00:21:50.958Z,3.00
2023-01-04T00:24:27.701Z,4.93
2023-01-04T00:26:54.527Z,3.67
2023-01-04T00:29:22.755Z,4.20
2023-01-04T01:20:20.581Z,1.13
2023-01-04T01:22:47.908Z,1.07
2023-01-04T01:25:17.593Z,1.00
2023-01-04T01:27:45.138Z,1.00
2023-01-04T01:30:12.947Z,1.77
2023-01-04T01:32:40.452Z,2.73
2023-01-04T01:35:07.629Z,0.60
2023-01-04T01:37:34.562Z,0.97
2023-01-04T01:40:01.288Z,1.93
2023-01-04T01:42:28.878Z,0.60
2023-01-04T01:45:02.265Z,0.60
2023-01-04T01:47:42.279Z,1.33
2023-01-04T01:50:23.105Z,0.50
2023-01-04T01:52:50.390Z,0.77
2023-01-04T01:55:17.768Z,1.00
2023-01-04T01:57:45.032Z,2.30
2023-01-04T02:00:14.662Z,2.50
2023-01-04T02:02:49.927Z,0.53
2023-01-04T02:05:22.110Z,1.00
2023-01-04T02:07:49.472Z,1.60
2023-01-04T02:10:16.190Z,0.90
2023-01-04T02:12:44.868Z,0.67
2023-01-04T02:15:12.124Z,2.13
2023-01-04T02:17:59.223Z,1.83
2023-01-04T02:20:28.318Z,0.73
2023-01-04T02:23:11.023Z,0.70
2023-01-04T02:25:51.331Z,1.33
2023-01-04T02:29:11.868Z,1.53
2023-01-04T02:31:49.110Z,1.63
2023-01-04T02:34:42.297Z,0.77
2023-01-04T02:37:13.561Z,0.93
2023-01-04T02:40:12.852Z,1.17
2023-01-04T02:43:18.295Z,2.07
2023-01-04T02:45:50.988Z,3.37
2023-01-04T02:48:53.049Z,3.77
2023-01-04T02:51:29.668Z,2.37
2023-01-04T02:54:00.109Z,2.67
2023-01-04T02:56:38.489Z,2.63
2023-01-04T02:59:12.906Z,2.17
2023-01-04T03:02:03.342Z,3.07
2023-01-04T03:05:20.707Z,5.03
2023-01-04T03:07:57.336Z,1.90
2023-01-04T03:10:37.125Z,3.70
2023-01-04T03:13:14.867Z,2.60
2023-01-04T03:15:43.651Z,2.73
2023-01-04T03:18:15.355Z,2.73
2023-01-04T03:20:42.791Z,4.03
2023-01-04T03:23:32.337Z,3.13
2023-01-04T03:26:22.647Z,3.70
2023-01-04T03:29:08.949Z,6.23
2023-01-04T03:32:02.715Z,1.53
2023-01-04T03:34:49.653Z,3.73
2023-01-04T03:38:17.185Z,2.90
2023-01-04T03:41:18.134Z,1.50
2023-01-04T03:44:13.987Z,5.83
2023-01-04T03:47:06.546Z,4.23
2023-01-04T03:50:00.199Z,3.17
2023-01-04T03:52:29.139Z,3.07
2023-01-04T03:54:58.034Z,2.63
2023-01-04T03:57:25.438Z,1.73
2023-01-04T03:59:56.228Z,3.13
2023-01-04T04:02:24.691Z,3.27
2023-01-04T04:05:10.375Z,2.20
2023-01-04T04:07:55.671Z,2.10
2023-01-04T04:10:22.403Z,2.70
2023-01-04T04:12:50.061Z,2.33
2023-01-04T04:15:19.599Z,6.17
2023-01-04T04:17:48.543Z,1.20
2023-01-04T04:20:15.451Z,3.07
2023-01-04T04:22:43.458Z,4.03
2023-01-04T04:25:10.486Z,6.10
2023-01-04T04:27:37.345Z,2.83
2023-01-04T04:30:04.986Z,3.00
2023-01-04T04:32:31.794Z,3.97
2023-01-04T04:34:58.591Z,3.10
2023-01-04T04:37:27.185Z,3.93
2023-01-04T04:39:54.031Z,4.03
2023-01-04T04:42:20.899Z,4.20
2023-01-04T04:44:48.361Z,2.63
2023-01-04T04:47:15.321Z,3.70
2023-01-04T04:49:42.600Z,2.27
2023-01-04T04:52:09.618Z,3.80
2023-01-04T04:54:36.767Z,3.90
2023-01-04T04:57:03.827Z,1.50
2023-01-04T04:59:30.698Z,6.30
2023-01-04T05:01:57.588Z,4.13
2023-01-04T05:04:25.571Z,7.00
2023-01-04T05:06:53.104Z,2.20
2023-01-04T05:09:19.938Z,5.60
2023-01-04T05:12:05.104Z,1.43
2023-01-04T05:14:31.955Z,2.57
2023-01-04T05:16:58.789Z,1.27
2023-01-04T05:19:25.713Z,3.00
2023-01-04T05:21:53.966Z,2.50
2023-01-04T05:24:30.548Z,3.00
2023-01-04T05:26:57.865Z,1.00
2023-01-04T05:29:43.228Z,2.17
2023-01-04T05:32:10.153Z,3.27
2023-01-04T05:34:37.856Z,2.47
2023-01-04T05:37:05.098Z,3.03
2023-01-04T05:39:32.089Z,1.60
2023-01-04T05:42:17.441Z,1.63
2023-01-04T05:44:47.547Z,1.60
2023-01-04T05:47:15.483Z,1.00
2023-01-04T05:49:42.644Z,3.07
2023-01-04T05:52:10.150Z,2.67
2023-01-04T05:54:40.604Z,1.77
2023-01-04T05:57:08.443Z,2.73
2023-01-04T05:59:41.070Z,1.33
2023-01-04T06:02:23.706Z,2.47
2023-01-04T06:04:58.145Z,2.07
2023-01-04T06:07:26.124Z,3.43
2023-01-04T06:09:53.052Z,1.93
2023-01-04T06:12:20.542Z,5.57
2023-01-04T06:14:48.409Z,5.33
2023-01-04T06:17:16.612Z,1.37
2023-01-04T06:19:43.616Z,4.27
2023-01-04T06:22:10.740Z,3.53
2023-01-04T06:24:38.252Z,2.13
2023-01-04T06:27:05.106Z,1.17
2023-01-04T06:29:32.507Z,1.80
2023-01-04T06:31:59.399Z,1.40
2023-01-04T06:34:30.848Z,2.87
2023-01-04T06:36:58.713Z,2.83
2023-01-04T06:39:25.548Z,1.73
2023-01-04T06:41:52.714Z,2.00
2023-01-04T06:44:21.470Z,2.43
2023-01-04T06:46:48.301Z,2.30
2023-01-04T06:49:15.702Z,1.63
2023-01-04T06:51:42.420Z,1.70
2023-01-04T06:54:12.582Z,2.40
2023-01-04T06:56:40.569Z,1.40
2023-01-04T06:59:10.421Z,1.77
2023-01-04T07:01:37.464Z,1.97
2023-01-04T07:04:05.204Z,1.90
2023-01-04T07:06:31.980Z,4.20
2023-01-04T07:08:59.093Z,5.07
2023-01-04T07:11:25.889Z,2.20
2023-01-04T07:13:52.940Z,3.03
2023-01-04T07:16:20.326Z,5.67
2023-01-04T07:18:47.639Z,2.57
2023-01-04T07:21:14.930Z,5.63
2023-01-04T07:23:42.017Z,2.33
2023-01-04T07:26:09.168Z,1.07
2023-01-04T07:28:54.622Z,2.90
2023-01-04T07:31:21.831Z,2.50
2023-01-04T07:33:52.535Z,1.93
2023-01-04T07:36:19.610Z,4.90
2023-01-04T07:38:46.358Z,1.63
2023-01-04T07:41:13.253Z,2.03
2023-01-04T07:43:40.803Z,6.03
2023-01-04T07:46:08.150Z,1.57
2023-01-04T07:48:34.931Z,1.10
2023-01-04T07:51:01.974Z,6.97
2023-01-04T07:53:29.143Z,0.83
2023-01-04T07:55:59.999Z,2.43
2023-01-04T07:58:31.435Z,2.23
2023-01-04T08:01:09.932Z,1.17
2023-01-04T08:03:37.689Z,0.63
2023-01-04T08:06:06.151Z,3.40
2023-01-04T08:08:33.204Z,5.10
2023-01-04T08:11:06.706Z,2.03
2023-01-04T08:13:33.736Z,3.17
2023-01-04T08:16:01.482Z,2.03
2023-01-04T08:18:28.494Z,2.60
2023-01-04T08:21:07.242Z,5.10
2023-01-04T08:23:36.092Z,3.43
2023-01-04T08:26:13.888Z,1.90
2023-01-04T08:28:40.955Z,5.23
2023-01-04T08:31:11.653Z,2.33
2023-01-04T08:33:39.333Z,2.27
2023-01-04T08:36:27.026Z,2.77
2023-01-04T08:39:01.364Z,3.10
2023-01-04T08:41:57.344Z,2.50
2023-01-04T08:44:22.898Z,0.70
2023-01-04T08:46:53.337Z,1.30
2023-01-04T08:49:21.029Z,2.40
2023-01-04T08:51:48.693Z,3.70
2023-01-04T08:54:16.284Z,3.70
2023-01-04T08:56:44.549Z,1.47
2023-01-04T08:59:14.828Z,3.27
2023-01-04T09:01:42.059Z,4.00
2023-01-04T09:04:16.499Z,4.57
2023-01-04T09:06:43.897Z,3.43
2023-01-04T09:09:10.873Z,5.47
2023-01-04T09:11:38.821Z,5.20
2023-01-04T09:14:11.387Z,1.07
2023-01-04T09:16:38.634Z,1.43
2023-01-04T09:19:06.868Z,5.47
2023-01-04T09:21:35.265Z,3.37
2023-01-04T09:24:03.025Z,0.77
2023-01-04T09:26:30.306Z,2.33
2023-01-04T09:28:57.494Z,4.17
2023-01-04T09:31:33.066Z,2.37
2023-01-04T09:34:17.330Z,3.67
2023-01-04T09:36:46.563Z,1.77
2023-01-04T09:39:21.748Z,3.37
2023-01-04T09:41:58.552Z,3.60
2023-01-04T09:47:53.161Z,2.00
2023-01-04T09:50:27.386Z,6.10
2023-01-04T09:53:03.280Z,4.17
2023-01-04T09:55:57.674Z,1.50
2023-01-04T09:58:33.470Z,0.60
2023-01-04T10:01:11.551Z,3.87
2023-01-04T10:03:40.199Z,1.23
2023-01-04T10:06:10.792Z,2.00
2023-01-04T10:08:40.035Z,3.67
2023-01-04T10:11:30.941Z,2.63
2023-01-04T10:14:35.398Z,4.17
2023-01-04T10:18:51.996Z,2.60
2023-01-04T10:23:59.468Z,2.73
2023-01-04T10:26:34.982Z,2.77
2023-01-04T10:29:30.033Z,4.00
2023-01-04T10:32:34.694Z,2.40
2023-01-04T10:35:03.008Z,1.73
2023-01-04T10:37:35.892Z,2.93
2023-01-04T10:40:06.350Z,1.57
2023-01-04T10:42:40.063Z,2.43
2023-01-04T10:45:15.879Z,5.70
2023-01-04T10:47:57.789Z,4.90
2023-01-04T10:50:44.898Z,1.53
2023-01-04T10:53:22.353Z,0.60
2023-01-04T10:56:25.071Z,3.30
2023-01-04T10:59:01.696Z,2.27
2023-01-04T11:01:39.327Z,3.27
2023-01-04T11:04:14.137Z,3.40
2023-01-04T11:06:42.562Z,3.77
2023-01-04T11:09:13.628Z,6.87
2023-01-04T11:11:43.444Z,1.03
2023-01-04T11:14:10.957Z,6.37
2023-01-04T11:16:40.951Z,2.20
2023-01-04T11:19:09.901Z,3.13
2023-01-04T11:21:45.075Z,4.20
2023-01-04T11:24:31.468Z,2.20
2023-01-04T11:27:08.412Z,2.83
2023-01-04T11:30:02.883Z,0.60
2023-01-04T11:32:44.751Z,2.30
2023-01-04T11:35:11.794Z,3.63
2023-01-04T11:37:42.389Z,2.03
2023-01-04T11:40:18.423Z,2.57
2023-01-04T11:42:47.058Z,3.60
2023-01-04T11:45:25.158Z,3.27
2023-01-04T11:47:58.512Z,1.37
2023-01-04T11:50:34.458Z,3.63
2023-01-04T11:53:01.421Z,2.40
2023-01-04T11:55:31.902Z,1.07
2023-01-04T11:58:10.011Z,1.40
2023-01-04T12:00:37.839Z,0.80
2023-01-04T12:03:16.871Z,2.70
2023-01-04T12:05:43.938Z,2.20
2023-01-04T12:08:27.553Z,1.43
2023-01-04T12:10:54.453Z,1.63
2023-01-04T12:13:23.654Z,2.03
2023-01-04T12:16:08.070Z,1.23
2023-01-04T12:18:38.053Z,3.23
2023-01-04T12:21:08.283Z,1.33
2023-01-04T12:23:36.354Z,2.93
2023-01-04T12:26:04.010Z,0.50
2023-01-04T12:28:40.287Z,3.40
2023-01-04T12:31:20.321Z,1.70
2023-01-04T12:34:28.116Z,1.43
2023-01-04T12:37:04.512Z,2.27
2023-01-04T12:39:44.983Z,1.43
2023-01-04T12:42:19.250Z,4.73
2023-01-04T12:44:52.052Z,1.20
2023-01-04T12:47:37.952Z,1.07
2023-01-04T12:50:11.806Z,2.60
2023-01-04T12:53:28.287Z,2.93
2023-01-04T12:55:39.132Z,0.63
2023-01-04T12:58:41.065Z,1.60
2023-01-04T13:01:28.681Z,3.93
2023-01-04T13:04:23.813Z,1.60
2023-01-04T13:07:12.119Z,2.00
2023-01-04T13:09:46.561Z,1.77
2023-01-04T13:12:29.976Z,1.47
2023-01-04T13:15:06.306Z,1.87
2023-01-04T13:17:39.025Z,0.30
2023-01-04T13:20:18.339Z,0.60
2023-01-04T13:22:51.378Z,2.43
2023-01-04T13:25:19.554Z,0.80
2023-01-04T13:28:04.167Z,0.30
2023-01-04T13:30:40.587Z,0.40
2023-01-04T13:33:32.049Z,1.93
2023-01-04T13:36:08.288Z,1.33
2023-01-04T13:38:35.768Z,1.80
2023-01-04T13:41:05.403Z,1.50
2023-01-04T13:43:39.017Z,1.33
2023-01-04T13:46:15.313Z,2.43
2023-01-04T13:48:44.971Z,1.13
2023-01-04T13:51:18.782Z,0.90
2023-01-04T13:53:59.775Z,3.30
2023-01-04T13:56:28.642Z,1.63
2023-01-04T13:58:55.981Z,3.37
2023-01-04T14:01:23.172Z,1.33
2023-01-04T14:04:16.943Z,3.77
2023-01-04T14:06:47.335Z,0.80
2023-01-04T14:09:54.959Z,2.20
2023-01-04T14:12:24.707Z,2.77
2023-01-04T14:15:19.189Z,0.47
2023-01-04T14:17:52.834Z,2.07
2023-01-04T14:20:19.654Z,0.50
2023-01-04T14:22:46.479Z,4.00
2023-01-04T14:25:41.058Z,3.20
2023-01-04T14:28:28.517Z,2.90
2023-01-04T14:31:03.636Z,2.40
2023-01-04T14:33:30.435Z,2.10
2023-01-04T14:36:07.303Z,2.40
2023-01-04T14:38:45.397Z,1.03
2023-01-04T14:41:30.451Z,3.43
2023-01-04T14:44:00.176Z,0.97
2023-01-04T14:46:29.214Z,1.60
2023-01-04T14:48:56.100Z,0.57
2023-01-04T14:51:32.465Z,1.03
2023-01-04T14:53:59.415Z,0.20
2023-01-04T14:56:26.320Z,0.40
2023-01-04T14:58:53.092Z,1.10
2023-01-04T15:01:19.962Z,1.97
2023-01-04T15:03:47.227Z,0.47
2023-01-04T15:06:14.337Z,3.50
2023-01-04T15:08:41.495Z,1.50
2023-01-04T15:11:10.198Z,1.17
2023-01-04T15:13:39.857Z,2.37
2023-01-04T15:16:10.780Z,2.47
2023-01-04T15:18:37.768Z,1.30
2023-01-04T15:21:04.921Z,1.60
2023-01-04T15:23:31.957Z,1.97
2023-01-04T15:26:01.881Z,2.90
2023-01-04T15:28:28.803Z,1.93
2023-01-04T15:30:55.781Z,5.27
2023-01-04T15:33:23.130Z,3.93
2023-01-04T15:36:06.046Z,3.33
2023-01-04T15:38:33.316Z,6.10
2023-01-04T15:41:12.019Z,6.97
2023-01-04T15:43:39.101Z,10.27
2023-01-04T15:46:07.678Z,10.87
2023-01-04T15:48:35.492Z,12.10
2023-01-04T15:51:07.939Z,12.37
2023-01-04T15:53:35.450Z,9.63
2023-01-04T15:56:11.174Z,15.57
2023-01-04T15:58:38.581Z,16.20
2023-01-04T16:01:10.001Z,21.00
2023-01-04T16:03:37.709Z,17.67
2023-01-04T16:06:06.827Z,11.87
2023-01-04T16:08:44.400Z,13.60
2023-01-04T16:11:15.758Z,19.97
2023-01-04T16:13:44.590Z,18.83
2023-01-04T16:16:12.011Z,17.63
2023-01-04T16:18:39.097Z,16.53
2023-01-04T16:21:09.822Z,17.57
2023-01-04T16:23:37.413Z,16.40
2023-01-04T16:26:14.504Z,18.80
2023-01-04T16:28:41.917Z,18.33
2023-01-04T16:31:09.358Z,18.27
2023-01-04T16:33:38.828Z,17.37
2023-01-04T16:36:08.476Z,16.40
2023-01-04T16:38:37.076Z,22.50
2023-01-04T16:41:08.120Z,22.17
2023-01-04T16:43:47.343Z,24.07
2023-01-04T16:46:19.364Z,15.20
2023-01-04T16:48:49.280Z,21.83
2023-01-04T16:51:16.548Z,19.27
2023-01-04T16:53:43.949Z,27.00
2023-01-04T16:56:13.973Z,24.03
2023-01-04T16:58:43.879Z,24.10
2023-01-04T17:01:22.340Z,26.57
2023-01-04T17:03:51.154Z,21.27
2023-01-04T17:06:21.774Z,21.57
2023-01-04T17:08:50.253Z,23.23
2023-01-04T17:14:10.288Z,23.67
2023-01-04T17:16:37.048Z,26.17
2023-01-04T17:19:03.815Z,23.93
2023-01-04T17:21:39.130Z,31.13
2023-01-04T17:24:06.674Z,25.60
2023-01-04T17:26:33.742Z,20.67
2023-01-04T17:29:01.361Z,21.13
2023-01-04T17:31:30.916Z,19.23
2023-01-04T17:33:57.893Z,30.43
2023-01-04T17:36:24.678Z,27.20
2023-01-04T17:38:54.704Z,25.37
2023-01-04T17:41:23.642Z,20.57
2023-01-04T17:43:54.218Z,22.53
2023-01-04T17:46:23.754Z,28.07
2023-01-04T17:49:17.996Z,21.30
2023-01-04T17:51:39.941Z,33.07
2023-01-04T17:54:08.343Z,26.67
2023-01-04T17:56:37.135Z,26.23
2023-01-04T17:59:06.689Z,17.67
2023-01-04T18:01:34.313Z,35.23
2023-01-04T18:04:02.520Z,29.77
2023-01-04T18:06:34.544Z,37.63
2023-01-04T18:09:02.079Z,31.20
2023-01-04T18:11:30.249Z,33.00
2023-01-04T18:13:57.853Z,25.33
2023-01-04T18:16:27.197Z,28.13
2023-01-04T18:19:07.875Z,27.33
2023-01-04T18:21:34.789Z,24.33
2023-01-04T18:27:20.281Z,18.47
2023-01-04T18:29:37.625Z,29.97
2023-01-04T18:32:04.666Z,17.77
2023-01-04T18:34:31.586Z,34.33
2023-01-04T18:36:58.339Z,26.17
2023-01-04T18:39:25.430Z,17.70
2023-01-04T18:41:52.370Z,24.70
2023-01-04T18:44:39.720Z,31.60
2023-01-04T18:47:08.461Z,30.63
2023-01-04T18:49:35.183Z,22.50
2023-01-04T18:52:02.012Z,25.43
2023-01-04T18:54:29.005Z,18.97
2023-01-04T18:57:00.609Z,25.67
2023-01-04T18:59:31.749Z,27.43
2023-01-04T19:02:02.913Z,29.10
2023-01-04T19:04:32.207Z,26.43
2023-01-04T19:06:59.172Z,22.10
2023-01-04T19:09:26.134Z,29.53
2023-01-04T19:11:53.060Z,31.60
2023-01-04T19:14:20.058Z,29.40
2023-01-04T19:16:47.007Z,25.60
2023-01-04T19:19:14.125Z,26.27
2023-01-04T19:21:42.200Z,22.73
2023-01-04T19:24:12.629Z,32.17
2023-01-04T19:26:39.540Z,23.87
2023-01-04T19:29:08.232Z,27.20
2023-01-04T19:31:35.234Z,31.53
2023-01-04T19:34:02.731Z,29.27
2023-01-04T19:36:31.273Z,28.97
2023-01-04T19:38:58.334Z,27.70
2023-01-04T19:41:42.425Z,23.50
2023-01-04T19:44:20.220Z,24.37
2023-01-04T19:46:47.262Z,26.90
2023-01-04T19:49:15.415Z,26.50
2023-01-04T19:51:49.248Z,31.13
2023-01-04T19:54:25.094Z,20.70
2023-01-04T19:56:53.131Z,28.20
2023-01-04T19:59:20.185Z,23.20
2023-01-04T20:01:47.383Z,33.73
2023-01-04T20:04:15.323Z,23.90
2023-01-04T20:06:42.168Z,35.87
2023-01-04T20:09:08.976Z,29.70
2023-01-04T20:11:35.891Z,25.63
2023-01-04T20:14:07.831Z,26.03
2023-01-04T20:16:50.516Z,24.80
2023-01-04T20:19:17.424Z,23.90
2023-01-04T20:21:49.817Z,28.80
2023-01-04T20:24:16.873Z,16.93
2023-01-04T20:26:43.878Z,27.30
2023-01-04T20:29:10.783Z,21.80
2023-01-04T20:31:46.155Z,33.10
2023-01-04T20:34:13.407Z,27.23
2023-01-04T20:36:44.319Z,19.27
2023-01-04T20:39:14.906Z,25.00
2023-01-04T20:42:01.934Z,20.40
2023-01-04T20:44:30.310Z,21.63
2023-01-04T20:46:57.102Z,20.73
2023-01-04T20:49:24.105Z,24.00
2023-01-04T20:51:50.828Z,22.97
2023-01-04T20:54:17.841Z,22.20
2023-01-04T20:56:46.110Z,24.30
2023-01-04T20:59:15.306Z,22.00
2023-01-04T21:01:42.185Z,32.50
2023-01-04T21:04:09.571Z,28.50
2023-01-04T21:06:44.124Z,22.67
2023-01-04T21:09:10.961Z,19.97
2023-01-04T21:11:38.042Z,24.27
2023-01-04T21:14:11.025Z,22.27
2023-01-04T21:16:42.063Z,26.70
2023-01-04T21:19:09.449Z,20.93
2023-01-04T21:21:39.591Z,18.17
2023-01-04T21:24:07.361Z,15.93
2023-01-04T21:26:34.116Z,25.13
2023-01-04T21:29:00.867Z,13.73
2023-01-04T21:31:27.718Z,22.30
2023-01-04T21:33:55.932Z,20.13
2023-01-04T21:36:25.589Z,10.57
2023-01-04T21:38:56.691Z,19.90
2023-01-04T21:41:25.341Z,18.07
2023-01-04T21:43:54.564Z,24.87
2023-01-04T21:46:22.030Z,20.27
2023-01-04T21:48:48.974Z,17.50
2023-01-04T21:51:15.986Z,23.40
2023-01-04T21:53:45.183Z,17.40
2023-01-04T21:56:14.557Z,21.27
2023-01-04T21:58:41.717Z,18.30
2023-01-04T22:01:17.455Z,19.83
2023-01-04T22:03:44.890Z,21.63
2023-01-04T22:06:14.236Z,14.37
2023-01-04T22:08:46.483Z,18.03
2023-01-04T22:11:14.392Z,28.93
2023-01-04T22:13:41.284Z,21.57
2023-01-04T22:16:14.228Z,16.83
2023-01-04T22:18:41.420Z,16.43
2023-01-04T22:21:11.148Z,19.30
2023-01-04T22:23:37.889Z,23.17
2023-01-04T22:26:05.331Z,23.60
2023-01-04T22:28:36.698Z,19.03
2023-01-04T22:31:06.172Z,23.20
2023-01-04T22:33:34.229Z,16.93
2023-01-04T22:36:07.105Z,24.17
2023-01-04T22:38:36.634Z,14.13
2023-01-04T22:41:08.661Z,18.97
2023-01-04T22:43:36.385Z,20.20
2023-01-04T22:46:07.374Z,24.20
2023-01-04T22:48:35.190Z,25.43
2023-01-04T22:51:15.782Z,20.70
2023-01-04T22:53:43.113Z,19.73
2023-01-04T22:56:21.372Z,22.67
2023-01-04T22:58:53.364Z,22.50
2023-01-04T23:01:28.006Z,19.90
2023-01-04T23:03:57.281Z,24.13
2023-01-04T23:06:30.537Z,14.30
2023-01-04T23:09:00.102Z,22.43
2023-01-04T23:11:28.710Z,20.33
2023-01-04T23:13:56.399Z,22.60
2023-01-04T23:16:29.490Z,17.67
2023-01-04T23:18:59.167Z,25.73
2023-01-04T23:21:33.686Z,25.93
2023-01-04T23:24:01.410Z,25.50
2023-01-04T23:26:30.862Z,23.27
2023-01-04T23:29:01.633Z,28.73
2023-01-04T23:31:40.126Z,23.47
2023-01-04T23:34:08.744Z,16.50
2023-01-04T23:36:41.556Z,25.07
2023-01-04T23:39:12.546Z,20.60
2023-01-04T23:41:45.619Z,21.17
2023-01-04T23:44:25.998Z,22.10
2023-01-04T23:46:55.193Z,24.97
2023-01-04T23:49:23.681Z,20.50
2023-01-04T23:51:50.745Z,22.37
2023-01-04T23:54:18.182Z,30.27
2023-01-04T23:56:45.238Z,18.47
2023-01-04T23:59:12.090Z,20.63
